createdAt,value
2016-05-03T00:00:34.086Z,0
2016-05-03T00:01:34.074Z,0
2016-05-03T00:02:34.060Z,0
2016-05-03T00:03:33.876Z,0
2016-05-03T00:04:34.004Z,0
2016-05-03T00:05:33.991Z,0
2016-05-03T00:06:33.806Z,0
2016-05-03T00:07:35.074Z,0
2016-05-03T00:08:33.920Z,0
2016-05-03T00:09:33.893Z,0
2016-05-03T00:10:33.723Z,0
2016-05-03T00:11:33.851Z,0
2016-05-03T00:12:33.838Z,0
2016-05-03T00:13:33.825Z,0
2016-05-03T00:14:33.656Z,0
2016-05-03T00:15:33.768Z,0
2016-05-03T00:16:33.754Z,0
2016-05-03T00:17:33.586Z,0
2016-05-03T00:18:33.557Z,0
2016-05-03T00:19:33.701Z,0
2016-05-03T00:20:33.672Z,0
2016-05-03T00:21:33.643Z,0
2016-05-03T00:22:33.646Z,0
2016-05-03T00:23:33.617Z,0
2016-05-03T00:24:33.589Z,0
2016-05-03T00:25:33.722Z,0
2016-05-03T00:26:33.408Z,0
2016-05-03T00:27:33.536Z,0
2016-05-03T00:28:33.616Z,0
2016-05-03T00:29:33.336Z,0
2016-05-03T00:30:33.468Z,0
2016-05-03T00:31:33.441Z,0
2016-05-03T00:32:33.444Z,0
2016-05-03T00:33:33.259Z,0
2016-05-03T00:34:33.229Z,0
2016-05-03T00:35:33.374Z,0
2016-05-03T00:36:33.345Z,0
2016-05-03T00:37:33.319Z,0
2016-05-03T00:38:33.307Z,0
2016-05-03T00:39:33.277Z,0
2016-05-03T00:40:33.109Z,0
2016-05-03T00:41:33.095Z,0
2016-05-03T00:42:33.068Z,0
2016-05-03T00:43:33.195Z,0
2016-05-03T00:44:33.182Z,0
2016-05-03T00:45:33.153Z,0
2016-05-03T00:46:33.140Z,0
2016-05-03T00:47:33.112Z,0
2016-05-03T00:48:33.099Z,0
2016-05-03T00:49:33.086Z,0
2016-05-03T00:50:33.042Z,0
2016-05-03T00:51:33.060Z,0
2016-05-03T00:52:33.094Z,0
2016-05-03T00:53:32.987Z,0
2016-05-03T00:54:32.975Z,0
2016-05-03T00:55:32.789Z,0
2016-05-03T00:56:32.933Z,0
2016-05-03T00:57:32.605Z,0
2016-05-03T00:58:32.889Z,0
2016-05-03T00:59:32.719Z,0
2016-05-03T01:00:32.691Z,0
2016-05-03T01:01:32.834Z,0
2016-05-03T01:02:32.805Z,0
2016-05-03T01:03:32.778Z,0
2016-05-03T01:04:32.764Z,0
2016-05-03T01:05:32.751Z,0
2016-05-03T01:06:32.723Z,0
2016-05-03T01:07:32.569Z,0
2016-05-03T01:08:32.682Z,0
2016-05-03T01:09:32.668Z,0
2016-05-03T01:10:32.500Z,0
2016-05-03T01:11:32.626Z,0
2016-05-03T01:12:32.599Z,0
2016-05-03T01:13:32.585Z,0
2016-05-03T01:14:32.556Z,0
2016-05-03T01:15:32.388Z,0
2016-05-03T01:16:32.515Z,0
2016-05-03T01:17:32.502Z,0
2016-05-03T01:18:32.473Z,0
2016-05-03T01:19:32.305Z,0
2016-05-03T01:20:32.432Z,0
2016-05-03T01:21:32.404Z,0
2016-05-03T01:22:32.250Z,0
2016-05-03T01:23:32.393Z,0
2016-05-03T01:24:32.350Z,0
2016-05-03T01:25:32.337Z,0
2016-05-03T01:26:32.308Z,0
2016-05-03T01:27:32.311Z,0
2016-05-03T01:28:32.267Z,0
2016-05-03T01:29:32.253Z,0
2016-05-03T01:30:32.241Z,0
2016-05-03T01:31:32.211Z,0
2016-05-03T01:32:32.184Z,0
2016-05-03T01:33:32.170Z,0
2016-05-03T01:34:31.986Z,0
2016-05-03T01:35:32.130Z,0
2016-05-03T01:36:32.100Z,0
2016-05-03T01:37:31.931Z,0
2016-05-03T01:38:32.059Z,0
2016-05-03T01:39:32.046Z,0
2016-05-03T01:40:32.033Z,0
2016-05-03T01:41:32.005Z,0
2016-05-03T01:42:31.820Z,0
2016-05-03T01:43:31.963Z,0
2016-05-03T01:44:31.935Z,0
2016-05-03T01:45:31.921Z,0
2016-05-03T01:46:31.909Z,0
2016-05-03T01:47:31.880Z,0
2016-05-03T01:48:31.868Z,0
2016-05-03T01:49:31.838Z,0
2016-05-03T01:50:31.810Z,0
2016-05-03T01:51:31.798Z,0
2016-05-03T01:52:31.815Z,0
2016-05-03T01:53:31.757Z,0
2016-05-03T01:54:31.727Z,0
2016-05-03T01:55:31.714Z,0
2016-05-03T01:56:31.702Z,0
2016-05-03T01:57:31.673Z,0
2016-05-03T01:58:31.659Z,0
2016-05-03T01:59:31.631Z,0
2016-05-03T02:00:31.618Z,0
2016-05-03T02:01:31.590Z,0
2016-05-03T02:02:31.577Z,0
2016-05-03T02:03:31.392Z,0
2016-05-03T02:04:31.208Z,0
2016-05-03T02:05:31.507Z,0
2016-05-03T02:06:31.479Z,0
2016-05-03T02:07:31.168Z,0
2016-05-03T02:08:31.453Z,0
2016-05-03T02:09:31.267Z,0
2016-05-03T02:10:31.395Z,0
2016-05-03T02:11:31.383Z,0
2016-05-03T02:12:31.354Z,0
2016-05-03T02:13:31.341Z,0
2016-05-03T02:14:31.328Z,0
2016-05-03T02:15:31.143Z,0
2016-05-03T02:16:31.271Z,0
2016-05-03T02:17:31.258Z,0
2016-05-03T02:18:31.229Z,0
2016-05-03T02:19:31.232Z,0
2016-05-03T02:20:31.188Z,0
2016-05-03T02:21:31.175Z,0
2016-05-03T02:22:31.162Z,0
2016-05-03T02:23:31.134Z,0
2016-05-03T02:24:31.104Z,0
2016-05-03T02:25:31.092Z,0
2016-05-03T02:26:31.063Z,0
2016-05-03T02:27:31.051Z,0
2016-05-03T02:28:31.022Z,0
2016-05-03T02:29:30.853Z,0
2016-05-03T02:30:30.824Z,0
2016-05-03T02:31:30.968Z,0
2016-05-03T02:32:30.798Z,0
2016-05-03T02:33:30.925Z,0
2016-05-03T02:34:30.898Z,0
2016-05-03T02:35:30.900Z,0
2016-05-03T02:36:30.856Z,0
2016-05-03T02:37:31.749Z,0
2016-05-03T02:38:30.831Z,0
2016-05-03T02:39:30.802Z,0
2016-05-03T02:40:30.772Z,0
2016-05-03T02:41:30.791Z,0
2016-05-03T02:42:30.763Z,0
2016-05-03T02:43:30.719Z,0
2016-05-03T02:44:30.534Z,0
2016-05-03T02:45:30.677Z,0
2016-05-03T02:46:30.508Z,0
2016-05-03T02:47:30.495Z,0
2016-05-03T02:48:30.466Z,0
2016-05-03T02:49:30.438Z,0
2016-05-03T02:50:30.565Z,0
2016-05-03T02:51:30.553Z,0
2016-05-03T02:52:30.540Z,0
2016-05-03T02:53:30.543Z,0
2016-05-03T02:54:30.343Z,0
2016-05-03T02:55:30.314Z,0
2016-05-03T02:56:30.457Z,0
2016-05-03T02:57:30.429Z,0
2016-05-03T02:58:30.260Z,0
2016-05-03T02:59:30.402Z,0
2016-05-03T03:00:30.374Z,0
2016-05-03T03:01:30.189Z,0
2016-05-03T03:02:30.332Z,0
2016-05-03T03:03:30.304Z,0
2016-05-03T03:04:30.276Z,0
2016-05-03T03:05:30.262Z,0
2016-05-03T03:06:30.250Z,0
2016-05-03T03:07:30.065Z,0
2016-05-03T03:08:30.208Z,0
2016-05-03T03:09:30.038Z,0
2016-05-03T03:10:30.167Z,0
2016-05-03T03:11:30.138Z,0
2016-05-03T03:12:29.969Z,0
2016-05-03T03:13:30.096Z,0
2016-05-03T03:14:30.084Z,0
2016-05-03T03:15:30.055Z,0
2016-05-03T03:16:30.042Z,0
2016-05-03T03:17:29.858Z,0
2016-05-03T03:18:30.016Z,0
2016-05-03T03:19:29.816Z,0
2016-05-03T03:20:29.958Z,0
2016-05-03T03:21:29.774Z,0
2016-05-03T03:22:29.949Z,0
2016-05-03T03:23:29.889Z,0
2016-05-03T03:24:29.876Z,0
2016-05-03T03:25:29.847Z,4
2016-05-03T03:26:29.834Z,4
2016-05-03T03:27:29.806Z,0
2016-05-03T03:28:29.777Z,0
2016-05-03T03:29:29.624Z,4
2016-05-03T03:30:29.752Z,4
2016-05-03T03:31:29.568Z,4
2016-05-03T03:32:29.710Z,8
2016-05-03T03:33:29.526Z,4
2016-05-03T03:34:29.668Z,8
2016-05-03T03:35:29.484Z,8
2016-05-03T03:36:29.987Z,8
2016-05-03T03:37:29.629Z,8
2016-05-03T03:38:29.586Z,12
2016-05-03T03:39:29.557Z,12
2016-05-03T03:40:29.544Z,16
2016-05-03T03:41:29.515Z,20
2016-05-03T03:42:29.503Z,20
2016-05-03T03:43:29.475Z,24
2016-05-03T03:44:29.446Z,24
2016-05-03T03:45:29.447Z,24
2016-05-03T03:46:29.419Z,24
2016-05-03T03:47:29.391Z,24
2016-05-03T03:48:29.378Z,28
2016-05-03T03:49:29.349Z,28
2016-05-03T03:50:29.322Z,28
2016-05-03T03:51:29.308Z,36
2016-05-03T03:52:29.139Z,48
2016-05-03T03:53:29.266Z,44
2016-05-03T03:54:29.238Z,40
2016-05-03T03:55:29.224Z,44
2016-05-03T03:56:29.197Z,56
2016-05-03T03:57:29.183Z,64
2016-05-03T03:58:29.154Z,72
2016-05-03T03:59:29.142Z,88
2016-05-03T04:00:29.129Z,96
2016-05-03T04:01:29.101Z,92
2016-05-03T04:02:29.088Z,96
2016-05-03T04:03:29.059Z,96
2016-05-03T04:04:29.046Z,96
2016-05-03T04:05:29.018Z,96
2016-05-03T04:06:29.005Z,84
2016-05-03T04:07:28.992Z,72
2016-05-03T04:08:28.962Z,64
2016-05-03T04:09:28.778Z,68
2016-05-03T04:10:28.906Z,96
2016-05-03T04:11:28.737Z,104
2016-05-03T04:12:28.881Z,92
2016-05-03T04:13:28.852Z,92
2016-05-03T04:14:28.822Z,100
2016-05-03T04:15:28.653Z,112
2016-05-03T04:16:28.797Z,108
2016-05-03T04:17:28.769Z,128
2016-05-03T04:18:28.444Z,160
2016-05-03T04:19:28.727Z,188
2016-05-03T04:20:28.714Z,248
2016-05-03T04:21:28.690Z,308
2016-05-03T04:22:29.145Z,348
2016-05-03T04:23:28.742Z,376
2016-05-03T04:24:28.604Z,348
2016-05-03T04:25:28.779Z,280
2016-05-03T04:26:28.808Z,200
2016-05-03T04:27:28.656Z,180
2016-05-03T04:28:28.799Z,204
2016-05-03T04:29:28.788Z,276
2016-05-03T04:30:28.651Z,332
2016-05-03T04:31:28.778Z,400
2016-05-03T04:32:28.614Z,484
2016-05-03T04:33:28.608Z,556
2016-05-03T04:34:28.742Z,580
2016-05-03T04:35:28.564Z,584
2016-05-03T04:36:28.712Z,540
2016-05-03T04:37:28.561Z,464
2016-05-03T04:38:28.519Z,540
2016-05-03T04:39:28.648Z,620
2016-05-03T04:40:28.498Z,752
2016-05-03T04:41:28.628Z,848
2016-05-03T04:42:28.444Z,904
2016-05-03T04:43:28.635Z,944
2016-05-03T04:44:28.560Z,1032
2016-05-03T04:45:28.377Z,1108
2016-05-03T04:46:28.505Z,1152
2016-05-03T04:47:28.492Z,1200
2016-05-03T04:48:28.479Z,1292
2016-05-03T04:49:28.435Z,1316
2016-05-03T04:50:28.423Z,1308
2016-05-03T04:51:28.410Z,1308
2016-05-03T04:52:28.085Z,1344
2016-05-03T04:53:28.212Z,1436
2016-05-03T04:54:28.184Z,1628
2016-05-03T04:55:28.312Z,1880
2016-05-03T04:56:28.299Z,2100
2016-05-03T04:57:28.286Z,2136
2016-05-03T04:58:28.257Z,1952
2016-05-03T04:59:28.229Z,1776
2016-05-03T05:00:28.215Z,1460
2016-05-03T05:01:28.187Z,1032
2016-05-03T05:02:28.175Z,756
2016-05-03T05:03:28.146Z,784
2016-05-03T05:04:28.117Z,932
2016-05-03T05:05:28.120Z,1340
2016-05-03T05:06:28.106Z,1288
2016-05-03T05:07:27.906Z,1088
2016-05-03T05:08:28.034Z,1148
2016-05-03T05:09:28.022Z,1200
2016-05-03T05:10:27.852Z,1104
2016-05-03T05:11:27.980Z,668
2016-05-03T05:12:27.952Z,344
2016-05-03T05:13:27.938Z,516
2016-05-03T05:14:27.910Z,832
2016-05-03T05:15:27.913Z,1208
2016-05-03T05:16:27.868Z,1276
2016-05-03T05:17:27.683Z,1284
2016-05-03T05:18:27.827Z,1260
2016-05-03T05:19:27.798Z,1308
2016-05-03T05:20:27.785Z,1288
2016-05-03T05:21:27.772Z,1340
2016-05-03T05:22:27.525Z,1476
2016-05-03T05:23:27.731Z,1580
2016-05-03T05:24:27.687Z,1648
2016-05-03T05:25:27.658Z,1864
2016-05-03T05:26:27.645Z,2120
2016-05-03T05:27:27.617Z,2448
2016-05-03T05:28:27.447Z,2640
2016-05-03T05:29:27.418Z,2580
2016-05-03T05:30:27.562Z,2784
2016-05-03T05:31:27.221Z,3540
2016-05-03T05:32:27.505Z,3600
2016-05-03T05:33:27.476Z,4536
2016-05-03T05:34:27.448Z,4732
2016-05-03T05:35:27.278Z,4104
2016-05-03T05:36:27.406Z,3472
2016-05-03T05:37:28.112Z,3196
2016-05-03T05:38:27.380Z,3100
2016-05-03T05:39:27.337Z,2956
2016-05-03T05:40:27.323Z,3108
2016-05-03T05:41:27.310Z,2892
2016-05-03T05:42:27.282Z,2612
2016-05-03T05:43:27.253Z,2304
2016-05-03T05:44:27.333Z,2256
2016-05-03T05:45:27.196Z,2272
2016-05-03T05:46:27.183Z,2376
2016-05-03T05:47:27.155Z,2380
2016-05-03T05:48:27.141Z,2320
2016-05-03T05:49:26.957Z,2136
2016-05-03T05:50:26.929Z,1892
2016-05-03T05:51:27.057Z,1668
2016-05-03T05:52:27.418Z,1528
2016-05-03T05:53:27.015Z,1480
2016-05-03T05:54:26.986Z,1512
2016-05-03T05:55:26.973Z,1572
2016-05-03T05:56:26.945Z,1620
2016-05-03T05:57:26.760Z,1660
2016-05-03T05:58:26.903Z,1704
2016-05-03T05:59:26.874Z,1784
2016-05-03T06:00:26.846Z,1944
2016-05-03T06:01:26.833Z,2136
2016-05-03T06:02:26.804Z,2384
2016-05-03T06:03:26.478Z,2584
2016-05-03T06:04:26.748Z,2840
2016-05-03T06:05:26.735Z,3052
2016-05-03T06:06:26.706Z,3316
2016-05-03T06:07:27.942Z,3380
2016-05-03T06:08:26.664Z,3524
2016-05-03T06:09:26.636Z,3552
2016-05-03T06:10:26.467Z,3580
2016-05-03T06:11:26.282Z,3740
2016-05-03T06:12:26.566Z,3868
2016-05-03T06:13:26.536Z,3904
2016-05-03T06:14:26.509Z,3912
2016-05-03T06:15:26.496Z,3944
2016-05-03T06:16:26.467Z,3992
2016-05-03T06:17:26.142Z,4232
2016-05-03T06:18:26.426Z,4464
2016-05-03T06:19:26.397Z,4696
2016-05-03T06:20:26.385Z,4904
2016-05-03T06:21:26.355Z,5052
2016-05-03T06:22:26.343Z,5164
2016-05-03T06:23:26.314Z,5252
2016-05-03T06:24:26.271Z,5308
2016-05-03T06:25:26.257Z,5396
2016-05-03T06:26:26.243Z,5524
2016-05-03T06:27:26.216Z,5720
2016-05-03T06:28:26.187Z,5940
2016-05-03T06:29:26.018Z,6092
2016-05-03T06:30:25.990Z,6180
2016-05-03T06:31:26.117Z,6176
2016-05-03T06:32:26.104Z,6160
2016-05-03T06:33:26.091Z,6140
2016-05-03T06:34:26.047Z,6220
2016-05-03T06:35:26.018Z,6460
2016-05-03T06:36:26.006Z,6840
2016-05-03T06:37:26.556Z,7196
2016-05-03T06:38:25.947Z,7536
2016-05-03T06:39:25.936Z,7992
2016-05-03T06:40:25.906Z,8196
2016-05-03T06:41:25.737Z,8304
2016-05-03T06:42:25.850Z,9344
2016-05-03T06:43:25.853Z,10392
2016-05-03T06:44:25.652Z,11156
2016-05-03T06:45:25.810Z,11412
2016-05-03T06:46:25.610Z,12536
2016-05-03T06:47:25.738Z,13932
2016-05-03T06:48:25.725Z,14940
2016-05-03T06:49:25.541Z,16892
2016-05-03T06:50:25.668Z,15284
2016-05-03T06:51:25.671Z,12976
2016-05-03T06:52:25.486Z,13764
2016-05-03T06:53:25.535Z,16184
2016-05-03T06:54:25.585Z,18816
2016-05-03T06:55:25.571Z,19136
2016-05-03T06:56:25.528Z,18880
2016-05-03T06:57:25.515Z,20320
2016-05-03T06:58:25.502Z,20064
2016-05-03T06:59:25.474Z,18944
2016-05-03T07:00:25.460Z,17600
2016-05-03T07:01:25.432Z,17224
2016-05-03T07:02:25.404Z,16420
2016-05-03T07:03:25.375Z,16280
2016-05-03T07:04:25.362Z,15936
2016-05-03T07:05:25.349Z,15444
2016-05-03T07:06:25.321Z,13448
2016-05-03T07:07:25.323Z,12056
2016-05-03T07:08:25.279Z,11448
2016-05-03T07:09:25.266Z,10200
2016-05-03T07:10:25.253Z,8888
2016-05-03T07:11:25.209Z,7448
2016-05-03T07:12:25.196Z,6236
2016-05-03T07:13:25.168Z,6696
2016-05-03T07:14:25.139Z,8404
2016-05-03T07:15:25.126Z,8976
2016-05-03T07:16:25.097Z,8432
2016-05-03T07:17:25.084Z,8696
2016-05-03T07:18:25.056Z,7616
2016-05-03T07:19:25.043Z,6928
2016-05-03T07:20:25.014Z,6980
2016-05-03T07:21:24.986Z,8144
2016-05-03T07:22:26.489Z,10012
2016-05-03T07:23:24.788Z,10908
2016-05-03T07:24:24.760Z,10676
2016-05-03T07:25:24.919Z,10372
2016-05-03T07:26:24.874Z,9312
2016-05-03T07:27:24.861Z,8172
2016-05-03T07:28:24.832Z,7112
2016-05-03T07:29:24.821Z,8132
2016-05-03T07:30:24.635Z,9852
2016-05-03T07:31:24.779Z,9592
2016-05-03T07:32:24.750Z,8116
2016-05-03T07:33:24.737Z,8900
2016-05-03T07:34:24.709Z,12740
2016-05-03T07:35:24.679Z,13472
2016-05-03T07:36:24.495Z,14176
2016-05-03T07:37:24.482Z,16616
2016-05-03T07:38:24.469Z,25056
2016-05-03T07:39:24.598Z,45248
2016-05-03T07:40:24.568Z,40704
2016-05-03T07:41:24.399Z,42624
2016-05-03T07:42:24.527Z,41792
2016-05-03T07:43:24.545Z,59328
2016-05-03T07:44:24.486Z,32896
2016-05-03T07:45:24.456Z,22144
2016-05-03T07:46:24.444Z,20992
2016-05-03T07:47:24.415Z,20704
2016-05-03T07:48:24.403Z,15520
2016-05-03T07:49:24.420Z,12956
2016-05-03T07:50:24.361Z,13504
2016-05-03T07:51:24.348Z,9920
2016-05-03T07:52:24.225Z,8168
2016-05-03T07:53:24.291Z,8196
2016-05-03T07:54:24.278Z,8364
2016-05-03T07:55:24.281Z,9248
2016-05-03T07:56:24.096Z,11056
2016-05-03T07:57:24.207Z,56288
2016-05-03T07:58:24.210Z,56192
2016-05-03T07:59:24.182Z,58880
2016-05-03T08:00:24.154Z,61600
2016-05-03T08:01:24.125Z,61856
2016-05-03T08:02:24.113Z,66432
2016-05-03T08:03:24.099Z,62144
2016-05-03T08:04:24.071Z,30272
2016-05-03T08:05:23.918Z,64608
2016-05-03T08:06:23.904Z,70848
2016-05-03T08:07:24.032Z,31264
2016-05-03T08:08:24.004Z,32672
2016-05-03T08:09:23.990Z,36896
2016-05-03T08:10:23.961Z,18720
2016-05-03T08:11:24.387Z,13676
2016-05-03T08:12:23.967Z,13736
2016-05-03T08:13:23.906Z,16520
2016-05-03T08:14:23.910Z,15472
2016-05-03T08:15:23.944Z,13396
2016-05-03T08:16:23.712Z,13072
2016-05-03T08:17:23.840Z,36736
2016-05-03T08:18:23.686Z,76448
2016-05-03T08:19:23.814Z,71552
2016-05-03T08:20:23.785Z,69376
2016-05-03T08:21:23.616Z,70912
2016-05-03T08:22:23.603Z,72128
2016-05-03T08:23:23.575Z,64832
2016-05-03T08:24:23.577Z,71008
2016-05-03T08:25:24.299Z,67200
2016-05-03T08:26:23.692Z,71136
2016-05-03T08:27:23.522Z,75264
2016-05-03T08:28:23.604Z,70048
2016-05-03T08:29:23.638Z,62528
2016-05-03T08:30:23.469Z,67808
2016-05-03T08:31:23.612Z,76000
2016-05-03T08:32:23.443Z,74912
2016-05-03T08:33:23.585Z,63552
2016-05-03T08:34:23.557Z,82976
2016-05-03T08:35:23.544Z,80704
2016-05-03T08:36:23.546Z,77280
2016-05-03T08:37:23.518Z,78752
2016-05-03T08:38:23.506Z,83744
2016-05-03T08:39:23.336Z,15704
2016-05-03T08:40:23.495Z,76992
2016-05-03T08:41:23.467Z,76672
2016-05-03T08:42:23.469Z,80640
2016-05-03T08:43:23.487Z,81216
2016-05-03T08:44:23.413Z,77024
2016-05-03T08:45:23.540Z,75648
2016-05-03T08:46:23.386Z,82496
2016-05-03T08:47:23.374Z,72480
2016-05-03T08:48:23.376Z,71296
2016-05-03T08:49:23.347Z,73760
2016-05-03T08:50:23.194Z,77824
2016-05-03T08:51:23.025Z,79904
2016-05-03T08:52:23.324Z,78720
2016-05-03T08:53:23.311Z,83552
2016-05-03T08:54:23.283Z,80288
2016-05-03T08:55:23.286Z,90304
2016-05-03T08:56:23.273Z,120960
2016-05-03T08:57:23.244Z,24608
2016-05-03T08:58:23.091Z,28256
2016-05-03T08:59:23.266Z,25600
2016-05-03T09:00:23.346Z,25280
2016-05-03T09:01:23.208Z,45728
2016-05-03T09:02:23.195Z,91840
2016-05-03T09:03:23.198Z,39200
2016-05-03T09:04:23.169Z,72320
2016-05-03T09:05:23.157Z,75424
2016-05-03T09:06:23.159Z,87072
2016-05-03T09:07:23.209Z,91968
2016-05-03T09:08:23.149Z,65440
2016-05-03T09:09:23.104Z,69760
2016-05-03T09:10:23.107Z,25984
2016-05-03T09:11:23.079Z,92704
2016-05-03T09:12:22.769Z,96480
2016-05-03T09:13:23.084Z,30304
2016-05-03T09:14:23.071Z,86304
2016-05-03T09:15:23.058Z,22400
2016-05-03T09:16:23.045Z,22624
2016-05-03T09:17:23.048Z,24800
2016-05-03T09:18:23.003Z,21632
2016-05-03T09:19:23.006Z,20544
2016-05-03T09:20:22.837Z,18848
2016-05-03T09:21:22.824Z,17420
2016-05-03T09:22:22.967Z,16156
2016-05-03T09:23:22.798Z,15284
2016-05-03T09:24:22.942Z,13940
2016-05-03T09:25:22.757Z,13344
2016-05-03T09:26:22.900Z,12444
2016-05-03T09:27:22.888Z,11760
2016-05-03T09:28:22.719Z,14400
2016-05-03T09:29:22.846Z,15472
2016-05-03T09:30:22.833Z,80480
2016-05-03T09:31:22.663Z,82272
2016-05-03T09:32:22.807Z,82112
2016-05-03T09:33:22.778Z,84576
2016-05-03T09:34:22.782Z,85536
2016-05-03T09:35:22.752Z,85152
2016-05-03T09:36:22.755Z,86144
2016-05-03T09:37:22.586Z,87936
2016-05-03T09:38:22.713Z,87840
2016-05-03T09:39:22.545Z,88832
2016-05-03T09:40:22.532Z,97472
2016-05-03T09:41:22.675Z,102688
2016-05-03T09:42:22.959Z,103584
2016-05-03T09:43:22.649Z,29696
2016-05-03T09:44:22.637Z,28864
2016-05-03T09:45:22.623Z,31200
2016-05-03T09:46:22.610Z,70528
2016-05-03T09:47:22.598Z,16400
2016-05-03T09:48:22.584Z,17404
2016-05-03T09:49:22.572Z,84704
2016-05-03T09:50:22.245Z,82208
2016-05-03T09:51:22.546Z,81280
2016-05-03T09:52:22.533Z,86464
2016-05-03T09:53:22.519Z,87968
2016-05-03T09:54:22.507Z,87360
2016-05-03T09:55:22.494Z,86784
2016-05-03T09:56:22.325Z,86048
2016-05-03T09:57:22.469Z,92032
2016-05-03T09:58:22.455Z,97024
2016-05-03T09:59:22.458Z,101376
2016-05-03T10:00:22.429Z,102368
2016-05-03T10:01:22.276Z,102272
2016-05-03T10:02:22.419Z,106240
2016-05-03T10:03:22.249Z,69696
2016-05-03T10:04:22.393Z,54304
2016-05-03T10:05:22.380Z,78400
2016-05-03T10:06:22.210Z,69088
2016-05-03T10:07:22.213Z,23712
2016-05-03T10:08:22.357Z,23424
2016-05-03T10:09:22.187Z,24288
2016-05-03T10:10:22.346Z,25504
2016-05-03T10:11:22.318Z,26144
2016-05-03T10:12:22.165Z,26720
2016-05-03T10:13:22.307Z,26656
2016-05-03T10:14:22.139Z,26944
2016-05-03T10:15:22.267Z,27264
2016-05-03T10:16:22.098Z,27488
2016-05-03T10:17:22.256Z,28288
2016-05-03T10:18:22.228Z,29472
2016-05-03T10:19:22.058Z,30560
2016-05-03T10:20:22.202Z,44960
2016-05-03T10:21:23.876Z,35680
2016-05-03T10:22:23.800Z,28128
2016-05-03T10:23:22.163Z,40544
2016-05-03T10:24:22.134Z,34048
2016-05-03T10:25:22.122Z,109312
2016-05-03T10:26:22.109Z,56736
2016-05-03T10:27:22.095Z,104416
2016-05-03T10:28:21.927Z,103104
2016-05-03T10:29:21.914Z,66752
2016-05-03T10:30:21.885Z,33152
2016-05-03T10:31:22.028Z,31360
2016-05-03T10:32:22.016Z,31904
2016-05-03T10:33:21.986Z,65504
2016-05-03T10:34:21.989Z,96448
2016-05-03T10:35:21.977Z,88576
2016-05-03T10:36:21.949Z,71744
2016-05-03T10:37:21.935Z,88832
2016-05-03T10:38:21.938Z,50080
2016-05-03T10:39:21.910Z,76512
2016-05-03T10:40:21.896Z,69824
2016-05-03T10:41:21.883Z,66848
2016-05-03T10:42:21.715Z,19392
2016-05-03T10:43:21.701Z,18496
2016-05-03T10:44:21.688Z,17760
2016-05-03T10:45:21.832Z,17440
2016-05-03T10:46:21.818Z,17536
2016-05-03T10:47:21.806Z,17760
2016-05-03T10:48:21.636Z,18272
2016-05-03T10:49:21.795Z,19232
2016-05-03T10:50:21.782Z,20544
2016-05-03T10:51:21.739Z,21632
2016-05-03T10:52:21.726Z,23552
2016-05-03T10:53:21.556Z,26592
2016-05-03T10:54:21.699Z,28992
2016-05-03T10:55:21.531Z,31328
2016-05-03T10:56:21.658Z,37056
2016-05-03T10:57:21.489Z,34720
2016-05-03T10:58:21.539Z,27520
2016-05-03T10:59:21.619Z,26208
2016-05-03T11:00:21.588Z,25600
2016-05-03T11:01:21.419Z,25376
2016-05-03T11:02:21.422Z,26432
2016-05-03T11:03:21.549Z,28128
2016-05-03T11:04:21.521Z,31168
2016-05-03T11:05:21.524Z,34560
2016-05-03T11:06:21.510Z,32960
2016-05-03T11:07:21.482Z,30240
2016-05-03T11:08:21.797Z,30688
2016-05-03T11:09:21.627Z,31744
2016-05-03T11:10:21.506Z,34752
2016-05-03T11:11:21.461Z,33216
2016-05-03T11:12:21.463Z,31584
2016-05-03T11:13:21.233Z,29248
2016-05-03T11:14:21.218Z,30304
2016-05-03T11:15:21.346Z,29248
2016-05-03T11:16:21.334Z,23904
2016-05-03T11:17:21.321Z,22464
2016-05-03T11:18:21.309Z,20896
2016-05-03T11:19:21.279Z,20384
2016-05-03T11:20:21.267Z,26368
2016-05-03T11:21:21.253Z,24832
2016-05-03T11:22:21.226Z,24768
2016-05-03T11:23:21.884Z,22528
2016-05-03T11:24:21.200Z,21056
2016-05-03T11:25:21.187Z,21152
2016-05-03T11:26:21.017Z,22336
2016-05-03T11:27:21.161Z,25504
2016-05-03T11:28:21.132Z,28160
2016-05-03T11:29:21.119Z,31648
2016-05-03T11:30:21.106Z,31424
2016-05-03T11:31:21.094Z,32096
2016-05-03T11:32:21.080Z,32576
2016-05-03T11:33:21.052Z,30432
2016-05-03T11:34:21.055Z,28800
2016-05-03T11:35:21.025Z,28416
2016-05-03T11:36:21.013Z,32032
2016-05-03T11:37:21.000Z,33696
2016-05-03T11:38:20.971Z,35680
2016-05-03T11:39:21.177Z,37024
2016-05-03T11:40:20.946Z,37728
2016-05-03T11:41:20.791Z,35456
2016-05-03T11:42:20.905Z,33024
2016-05-03T11:43:21.282Z,27456
2016-05-03T11:44:20.722Z,25568
2016-05-03T11:45:20.710Z,23680
2016-05-03T11:46:20.852Z,22496
2016-05-03T11:47:20.839Z,22208
2016-05-03T11:48:20.810Z,22560
2016-05-03T11:49:20.798Z,23712
2016-05-03T11:50:20.785Z,25664
2016-05-03T11:51:20.773Z,28448
2016-05-03T11:52:20.743Z,31200
2016-05-03T11:53:20.965Z,32256
2016-05-03T11:54:20.701Z,32288
2016-05-03T11:55:21.330Z,31392
2016-05-03T11:56:22.598Z,29408
2016-05-03T11:57:20.757Z,32928
2016-05-03T11:58:21.509Z,36320
2016-05-03T11:59:20.622Z,37696
2016-05-03T12:00:20.625Z,32480
2016-05-03T12:01:20.627Z,31904
2016-05-03T12:02:20.693Z,30784
2016-05-03T12:03:20.601Z,27232
2016-05-03T12:04:20.713Z,25728
2016-05-03T12:05:20.919Z,26048
2016-05-03T12:06:21.625Z,26336
2016-05-03T12:07:21.409Z,26080
2016-05-03T12:08:20.334Z,24992
2016-05-03T12:09:20.633Z,22880
2016-05-03T12:10:20.480Z,19328
2016-05-03T12:11:20.436Z,12228
2016-05-03T12:12:20.266Z,11352
2016-05-03T12:13:20.410Z,10972
2016-05-03T12:14:20.396Z,10960
2016-05-03T12:15:20.369Z,10944
2016-05-03T12:16:20.355Z,11208
2016-05-03T12:17:20.342Z,11856
2016-05-03T12:18:20.173Z,12128
2016-05-03T12:19:20.301Z,11460
2016-05-03T12:20:20.304Z,12408
2016-05-03T12:21:20.119Z,14508
2016-05-03T12:22:20.106Z,15084
2016-05-03T12:23:27.999Z,14316
2016-05-03T12:24:20.221Z,12348
2016-05-03T12:25:20.208Z,14388
2016-05-03T12:26:20.023Z,12788
2016-05-03T12:27:20.197Z,12320
2016-05-03T12:28:20.153Z,13608
2016-05-03T12:29:20.312Z,16672
2016-05-03T12:30:19.970Z,18976
2016-05-03T12:31:20.098Z,16452
2016-05-03T12:32:20.070Z,19040
2016-05-03T12:33:20.057Z,21312
2016-05-03T12:34:19.889Z,24064
2016-05-03T12:35:19.875Z,25632
2016-05-03T12:36:20.002Z,28608
2016-05-03T12:37:20.364Z,28128
2016-05-03T12:38:20.227Z,21472
2016-05-03T12:39:19.948Z,19808
2016-05-03T12:40:20.436Z,19040
2016-05-03T12:41:19.922Z,18880
2016-05-03T12:42:19.894Z,18848
2016-05-03T12:43:19.724Z,18464
2016-05-03T12:44:19.711Z,18112
2016-05-03T12:45:19.854Z,17696
2016-05-03T12:46:19.686Z,16968
2016-05-03T12:47:19.814Z,16896
2016-05-03T12:48:19.801Z,17376
2016-05-03T12:49:20.475Z,17888
2016-05-03T12:50:19.759Z,18336
2016-05-03T12:51:19.730Z,19136
2016-05-03T12:52:19.717Z,20064
2016-05-03T12:53:19.704Z,20864
2016-05-03T12:54:19.535Z,21952
2016-05-03T12:55:19.678Z,22624
2016-05-03T12:56:19.650Z,22784
2016-05-03T12:57:19.637Z,23872
2016-05-03T12:58:19.609Z,20576
2016-05-03T12:59:19.596Z,22016
2016-05-03T13:00:19.584Z,18084
2016-05-03T13:01:19.398Z,14968
2016-05-03T13:02:19.557Z,13608
2016-05-03T13:03:19.512Z,12916
2016-05-03T13:04:19.515Z,12652
2016-05-03T13:05:19.487Z,12700
2016-05-03T13:06:19.474Z,12764
2016-05-03T13:07:19.305Z,12592
2016-05-03T13:08:19.525Z,12844
2016-05-03T13:09:19.419Z,13644
2016-05-03T13:10:19.406Z,15540
2016-05-03T13:11:19.378Z,20512
2016-05-03T13:12:19.366Z,19072
2016-05-03T13:13:19.196Z,23264
2016-05-03T13:14:19.339Z,27456
2016-05-03T13:15:19.311Z,27776
2016-05-03T13:16:19.297Z,20480
2016-05-03T13:17:19.285Z,17888
2016-05-03T13:18:19.271Z,16208
2016-05-03T13:19:19.259Z,17888
2016-05-03T13:20:19.230Z,42016
2016-05-03T13:21:19.061Z,19328
2016-05-03T13:22:19.204Z,14196
2016-05-03T13:23:19.192Z,14088
2016-05-03T13:24:19.109Z,15208
2016-05-03T13:25:19.156Z,18572
2016-05-03T13:26:19.127Z,24832
2016-05-03T13:27:18.958Z,10124
2016-05-03T13:28:19.123Z,52224
2016-05-03T13:29:19.150Z,74080
2016-05-03T13:30:19.163Z,9836